Time;durP1;ratioP1;P1;durP2;ratioP2;P2;SDS_P1;SDS_P2;PMS_P1;PMS_P2;Temp;Humidity;BMP_temperature;BMP_pressure;BME280_temperature;BME280_humidity;BME280_pressure;Samples;Min_cycle;Max_cycle;Signal;HPM_P1;HPM_P2
2022/01/29 00:02:16;;;;;;;3.50;3.20;;;;;;;2.04;66.42;95542.38;5041136;28;20723;-67
2022/01/29 00:04:44;;;;;;;4.67;3.07;;;;;;;1.89;66.98;95539.78;5048971;28;20317;-68
2022/01/29 00:07:10;;;;;;;3.83;2.90;;;;;;;1.99;66.71;95541.50;5049039;28;20187;-67
2022/01/29 00:09:38;;;;;;;5.63;3.00;;;;;;;1.94;67.08;95548.16;5046345;28;20256;-67
2022/01/29 00:12:06;;;;;;;3.27;2.97;;;;;;;1.96;66.74;95544.00;5048675;28;20246;-68
2022/01/29 00:14:33;;;;;;;3.43;2.87;;;;;;;2.03;66.77;95548.22;5049201;28;20253;-67
2022/01/29 00:16:59;;;;;;;6.67;3.90;;;;;;;1.92;67.09;95559.00;5033240;28;20497;-68
2022/01/29 00:19:26;;;;;;;6.73;3.30;;;;;;;1.98;67.16;95552.34;5025920;28;20298;-68
2022/01/29 00:21:54;;;;;;;4.03;3.70;;;;;;;1.89;68.53;95554.81;5031636;28;20278;-68
2022/01/29 00:24:21;;;;;;;6.23;4.03;;;;;;;1.93;68.07;95558.19;5031952;28;20293;-68
2022/01/29 00:26:48;;;;;;;8.67;4.40;;;;;;;1.96;69.08;95564.06;5033571;28;20304;-68
2022/01/29 00:29:19;;;;;;;4.00;3.57;;;;;;;1.94;70.20;95558.19;5033223;28;20199;-68
2022/01/29 00:31:46;;;;;;;5.43;3.70;;;;;;;2.07;69.41;95554.09;5032254;28;20294;-68
2022/01/29 00:34:13;;;;;;;4.37;4.00;;;;;;;1.95;70.42;95559.88;5031575;28;21268;-69
2022/01/29 00:36:40;;;;;;;4.90;4.20;;;;;;;1.95;69.48;95569.06;5031455;28;20191;-68
2022/01/29 00:39:08;;;;;;;8.10;4.20;;;;;;;2.02;69.57;95554.06;5032837;28;20206;-69
2022/01/29 00:41:34;;;;;;;6.23;4.03;;;;;;;2.01;69.45;95552.38;5031996;28;20199;-69
2022/01/29 00:44:01;;;;;;;4.57;4.17;;;;;;;1.78;70.85;95551.38;5032325;28;20256;-68
2022/01/29 00:46:28;;;;;;;6.40;3.87;;;;;;;1.91;70.36;95543.13;5031602;28;20227;-68
2022/01/29 00:48:55;;;;;;;4.87;4.20;;;;;;;1.92;70.14;95533.94;5032076;28;20582;-68
2022/01/29 00:51:22;;;;;;;4.77;4.37;;;;;;;2.12;69.40;95544.09;5031433;28;20298;-68
2022/01/29 00:53:48;;;;;;;6.30;4.30;;;;;;;2.00;69.78;95544.84;5031100;28;20203;-68
2022/01/29 00:56:17;;;;;;;4.50;3.77;;;;;;;2.14;69.37;95549.97;5031838;28;20203;-68
2022/01/29 00:58:44;;;;;;;4.30;3.80;;;;;;;2.06;70.78;95547.41;5030242;28;21390;-68
2022/01/29 01:01:11;;;;;;;5.23;4.10;;;;;;;2.11;70.46;95544.94;5028940;28;20205;-68
2022/01/29 01:03:38;;;;;;;6.13;4.77;;;;;;;2.12;70.00;95551.63;5029791;28;20195;-68
2022/01/29 01:06:04;;;;;;;7.30;4.27;;;;;;;1.99;71.63;95546.50;5029227;28;20313;-68
2022/01/29 01:08:31;;;;;;;4.67;4.27;;;;;;;1.91;71.23;95553.16;5029704;28;20265;-68
2022/01/29 01:10:58;;;;;;;5.63;4.70;;;;;;;1.93;72.39;95554.00;5027530;28;20351;-68
2022/01/29 01:13:27;;;;;;;3.80;3.47;;;;;;;2.14;70.37;95549.97;5030451;28;20200;-68
2022/01/29 01:15:54;;;;;;;9.73;5.57;;;;;;;2.19;70.02;95544.16;5029846;28;20641;-68
2022/01/29 01:18:20;;;;;;;7.63;5.00;;;;;;;2.05;70.65;95540.72;5029126;28;20203;-68
2022/01/29 01:20:47;;;;;;;4.93;4.40;;;;;;;1.91;71.21;95533.09;5028723;28;20268;-69
2022/01/29 01:23:14;;;;;;;5.80;4.80;;;;;;;1.73;72.01;95532.13;5030052;28;20199;-68
2022/01/29 01:25:41;;;;;;;5.87;4.70;;;;;;;1.56;73.66;95526.97;5029754;28;20674;-69
2022/01/29 01:28:08;;;;;;;7.50;4.53;;;;;;;1.70;72.91;95523.78;5030102;28;20630;-69
2022/01/29 01:30:36;;;;;;;6.87;5.03;;;;;;;1.81;73.46;95531.34;5031114;28;20260;-68
2022/01/29 01:33:03;;;;;;;4.67;4.20;;;;;;;1.85;73.06;95524.69;5030888;28;20203;-68
2022/01/29 01:35:35;;;;;;;5.67;5.17;;;;;;;1.75;73.03;95523.78;5031857;28;20567;-69
2022/01/29 01:38:10;;;;;;;5.77;4.07;;;;;;;1.81;72.84;95533.84;5031154;28;20207;-69
2022/01/29 01:40:39;;;;;;;5.87;4.30;;;;;;;1.64;73.69;95532.88;5030911;28;20206;-68
2022/01/29 01:43:06;;;;;;;4.53;4.13;;;;;;;1.79;73.86;95534.66;5030988;28;20206;-68
2022/01/29 01:45:32;;;;;;;5.23;4.73;;;;;;;1.72;73.87;95526.28;5031032;28;20254;-68
2022/01/29 01:48:03;;;;;;;5.50;5.00;;;;;;;1.76;73.39;95532.97;5031793;28;20207;-68
2022/01/29 01:50:30;;;;;;;7.47;4.87;;;;;;;1.78;73.53;95536.34;5031255;28;20210;-69
2022/01/29 01:52:57;;;;;;;5.77;5.17;;;;;;;1.64;73.95;95537.91;5030416;28;20195;-68
2022/01/29 01:55:23;;;;;;;5.43;4.73;;;;;;;1.79;74.09;95527.16;5030682;28;20203;-69
2022/01/29 01:57:50;;;;;;;5.63;5.00;;;;;;;1.72;73.73;95525.44;5030472;28;20208;-68
2022/01/29 02:00:17;;;;;;;4.87;4.57;;;;;;;1.74;73.07;95534.63;5030815;28;20296;-69
2022/01/29 02:02:44;;;;;;;6.50;5.67;;;;;;;1.69;73.82;95526.25;5029165;28;20206;-69
2022/01/29 02:05:13;;;;;;;5.93;4.97;;;;;;;1.58;74.12;95532.84;5030206;28;20348;-68
2022/01/29 02:07:39;;;;;;;6.33;4.90;;;;;;;1.52;75.63;95532.78;5033612;28;20207;-67
2022/01/29 02:10:09;;;;;;;6.23;5.43;;;;;;;1.32;75.31;95515.91;5033372;28;20211;-69
2022/01/29 02:12:45;;;;;;;5.37;4.83;;;;;;;1.69;74.91;95531.28;5033040;28;20538;-69
2022/01/29 02:15:14;;;;;;;5.40;4.27;;;;;;;1.68;74.08;95534.59;5033075;28;20195;-70
2022/01/29 02:17:41;;;;;;;6.40;5.00;;;;;;;1.61;74.94;95525.34;5032481;28;20252;-66
2022/01/29 02:20:09;;;;;;;5.93;4.80;;;;;;;1.62;75.17;95529.53;5031836;28;20215;-67
2022/01/29 02:22:39;;;;;;;6.97;5.30;;;;;;;1.74;75.30;95529.63;5033300;28;20843;-67
2022/01/29 02:25:06;;;;;;;5.43;4.30;;;;;;;1.65;75.11;95537.06;5031281;28;20223;-67
2022/01/29 02:27:33;;;;;;;7.63;5.40;;;;;;;1.84;74.99;95541.41;5032651;28;20697;-68
2022/01/29 02:30:00;;;;;;;6.33;5.37;;;;;;;1.95;74.54;95533.97;5033698;28;20199;-67
2022/01/29 02:32:27;;;;;;;5.57;4.90;;;;;;;1.80;75.49;95544.69;5033726;28;20269;-67
2022/01/29 02:34:53;;;;;;;6.80;5.10;;;;;;;1.85;75.25;95548.09;5035079;28;20195;-68
2022/01/29 02:37:20;;;;;;;6.67;5.30;;;;;;;1.91;75.08;95540.63;5035799;28;20257;-69
2022/01/29 02:39:48;;;;;;;7.00;4.93;;;;;;;1.86;75.43;95543.91;5034585;28;20204;-67
2022/01/29 02:42:15;;;;;;;6.33;5.73;;;;;;;1.75;75.43;95542.97;5035433;28;20195;-67
2022/01/29 02:44:42;;;;;;;6.67;5.37;;;;;;;1.73;75.59;95548.00;5035405;28;20646;-68
2022/01/29 02:47:26;;;;;;;4.77;4.33;;;;;;;1.69;75.27;95551.31;5032808;28;20386;-67
2022/01/29 02:49:53;;;;;;;6.40;4.43;;;;;;;1.72;76.29;95556.34;5034651;28;20232;-67
2022/01/29 02:52:19;;;;;;;5.13;4.63;;;;;;;1.62;76.23;95560.44;5031712;28;20246;-68
2022/01/29 02:54:47;;;;;;;5.13;4.60;;;;;;;1.63;76.44;95547.09;5033585;28;20191;-67
2022/01/29 02:57:15;;;;;;;5.73;4.57;;;;;;;1.60;76.11;95543.72;5035389;28;20207;-68
2022/01/29 02:59:42;;;;;;;5.50;4.43;;;;;;;1.67;76.47;95562.97;5034176;28;20199;-69
2022/01/29 03:02:09;;;;;;;4.90;4.47;;;;;;;1.76;75.95;95555.53;5034281;28;20204;-69
2022/01/29 03:04:36;;;;;;;6.07;4.33;;;;;;;1.78;76.08;95561.38;5030803;28;20861;-68
2022/01/29 03:07:03;;;;;;;5.63;5.07;;;;;;;1.69;75.51;95556.31;5030050;28;20237;-66
2022/01/29 03:09:30;;;;;;;5.63;4.80;;;;;;;1.61;75.52;95558.75;5032648;28;20203;-68
2022/01/29 03:11:59;;;;;;;5.20;4.77;;;;;;;1.71;75.69;95559.69;5032031;28;20227;-68
2022/01/29 03:14:25;;;;;;;6.47;4.77;;;;;;;1.79;75.00;95562.22;5032697;28;20944;-67
2022/01/29 03:16:52;;;;;;;4.90;4.47;;;;;;;1.67;76.50;95560.47;5031966;28;20844;-68
2022/01/29 03:19:19;;;;;;;5.27;4.73;;;;;;;1.59;76.67;95560.41;5031728;28;20276;-68
2022/01/29 03:21:48;;;;;;;5.37;4.70;;;;;;;1.61;75.85;95552.91;5032533;28;20230;-69
2022/01/29 03:24:15;;;;;;;9.00;4.67;;;;;;;1.58;75.16;95552.88;5031998;28;20276;-68
2022/01/29 03:26:41;;;;;;;6.77;4.60;;;;;;;1.63;74.81;95556.25;5032760;28;20222;-69
2022/01/29 03:29:10;;;;;;;8.13;4.73;;;;;;;1.72;74.38;95560.53;5032216;28;21222;-68
2022/01/29 03:31:36;;;;;;;5.23;4.73;;;;;;;1.94;72.51;95555.69;5031554;28;20207;-69
2022/01/29 03:34:03;;;;;;;4.47;4.07;;;;;;;1.64;73.83;95542.91;5033237;28;20239;-69
2022/01/29 03:36:30;;;;;;;4.57;3.87;;;;;;;1.63;73.69;95556.25;5034111;28;20207;-69
2022/01/29 03:38:57;;;;;;;4.40;4.10;;;;;;;1.82;73.82;95564.75;5034130;28;20707;-69
2022/01/29 03:41:23;;;;;;;5.87;3.87;;;;;;;1.80;73.10;95559.75;5033435;28;20290;-68
2022/01/29 03:43:52;;;;;;;5.37;4.10;;;;;;;1.86;72.19;95552.28;5033688;28;20658;-69
2022/01/29 03:46:20;;;;;;;4.87;3.33;;;;;;;1.76;73.17;95559.69;5033093;28;20603;-69
2022/01/29 03:48:47;;;;;;;4.50;4.10;;;;;;;1.72;72.90;95561.38;5033116;28;20203;-69
2022/01/29 03:51:14;;;;;;;4.50;4.07;;;;;;;1.58;73.22;95557.88;5034123;28;20253;-68
2022/01/29 03:53:40;;;;;;;4.03;3.73;;;;;;;1.67;74.00;95558.81;5033435;28;20674;-68
2022/01/29 03:56:07;;;;;;;5.50;4.57;;;;;;;1.62;73.89;95557.94;5033346;28;20203;-68
2022/01/29 03:58:34;;;;;;;5.57;4.47;;;;;;;1.67;73.64;95556.31;5031071;28;20199;-69
2022/01/29 04:01:01;;;;;;;4.20;3.90;;;;;;;1.66;73.89;95549.63;5032502;28;20199;-69
2022/01/29 04:03:29;;;;;;;4.80;4.30;;;;;;;1.70;73.11;95547.97;5032294;28;20211;-68
2022/01/29 04:05:56;;;;;;;5.80;4.60;;;;;;;1.65;73.66;95554.63;5028924;28;20787;-69
2022/01/29 04:08:24;;;;;;;4.73;4.40;;;;;;;1.54;74.78;95548.66;5031324;28;20261;-68
2022/01/29 04:10:52;;;;;;;4.33;4.03;;;;;;;1.62;73.17;95554.59;5030491;28;20289;-68
2022/01/29 04:13:22;;;;;;;4.50;4.10;;;;;;;1.53;74.93;95545.31;5028239;28;20289;-68
2022/01/29 04:15:48;;;;;;;4.37;3.97;;;;;;;1.54;74.01;95543.66;5030620;28;20207;-68
2022/01/29 04:18:15;;;;;;;4.50;4.10;;;;;;;1.47;74.93;95549.44;5029273;28;20203;-67
2022/01/29 04:20:44;;;;;;;4.33;3.93;;;;;;;1.48;74.28;95536.94;5030377;28;20294;-68
2022/01/29 04:23:11;;;;;;;4.70;4.30;;;;;;;1.52;74.63;95538.63;5030811;28;20569;-68
2022/01/29 04:25:38;;;;;;;5.77;4.50;;;;;;;1.60;74.53;95546.22;5030841;28;20954;-68
2022/01/29 04:28:06;;;;;;;5.00;4.43;;;;;;;1.50;74.48;95535.25;5030151;28;20231;-68
2022/01/29 04:30:42;;;;;;;4.53;4.13;;;;;;;1.61;74.03;95547.91;5030465;28;20206;-69
2022/01/29 04:33:27;;;;;;;4.97;4.47;;;;;;;1.79;73.45;95553.03;5030425;28;20214;-68
2022/01/29 04:35:56;;;;;;;4.72;4.07;;;;;;;1.63;73.51;95548.75;5031488;28;20740;-68
2022/01/29 04:38:23;;;;;;;3.77;3.47;;;;;;;1.57;73.78;95543.69;5032398;28;20199;-69
2022/01/29 04:40:50;;;;;;;3.73;3.47;;;;;;;1.22;75.05;95546.72;5031607;28;20586;-68
2022/01/29 04:43:16;;;;;;;3.87;3.63;;;;;;;1.44;73.85;95559.44;5032074;28;20257;-68
2022/01/29 04:45:43;;;;;;;4.13;3.73;;;;;;;1.36;74.48;95564.38;5032646;28;21372;-68
2022/01/29 04:48:10;;;;;;;5.60;4.67;;;;;;;1.24;75.19;95557.56;5032438;28;20258;-68
2022/01/29 04:50:37;;;;;;;6.13;5.47;;;;;;;1.33;74.58;95560.16;5032513;28;20213;-68
2022/01/29 04:53:05;;;;;;;13.23;8.50;;;;;;;1.20;75.30;95560.88;5031831;28;20207;-68
2022/01/29 04:55:32;;;;;;;15.97;8.87;;;;;;;1.23;74.67;95570.94;5031879;28;20979;-69
2022/01/29 04:57:59;;;;;;;4.57;4.17;;;;;;;1.20;74.87;95555.03;5031663;28;20598;-68
2022/01/29 05:00:26;;;;;;;4.13;3.73;;;;;;;1.27;75.13;95562.59;5031886;28;20199;-69
2022/01/29 05:02:54;;;;;;;3.80;3.50;;;;;;;1.40;74.61;95575.25;5031903;28;20249;-69
2022/01/29 05:05:22;;;;;;;4.53;4.13;;;;;;;1.58;74.21;95570.41;5031094;28;20248;-69
2022/01/29 05:07:49;;;;;;;4.10;3.70;;;;;;;1.74;73.35;95569.69;5032154;28;20717;-69
2022/01/29 05:10:19;;;;;;;3.40;3.20;;;;;;;1.76;73.59;95572.22;5031489;28;20670;-69
2022/01/29 05:12:51;;;;;;;4.37;3.97;;;;;;;1.68;73.91;95573.03;5028006;28;20199;-69
2022/01/29 05:15:25;;;;;;;3.87;3.57;;;;;;;1.67;74.19;95576.34;5030851;28;20211;-69
2022/01/29 05:28:51;;;;;;;4.93;4.20;;;;;;;1.50;74.48;95587.03;5029968;28;20248;-69
2022/01/29 05:31:18;;;;;;;4.80;4.10;;;;;;;1.48;74.57;95568.66;5030354;28;20199;-68
2022/01/29 05:33:45;;;;;;;4.80;4.40;;;;;;;1.39;75.24;95551.03;5029829;28;20203;-69
2022/01/29 05:36:11;;;;;;;5.13;3.60;;;;;;;1.41;75.77;95581.94;5029450;28;20215;-69
2022/01/29 05:38:38;;;;;;;4.67;4.27;;;;;;;1.33;76.07;95577.69;5029388;28;20265;-68
2022/01/29 05:41:06;;;;;;;4.60;4.10;;;;;;;1.38;76.10;95580.25;5032089;28;21004;-69
2022/01/29 05:43:33;;;;;;;4.50;4.10;;;;;;;1.38;75.99;95579.41;5035573;28;20630;-69
2022/01/29 05:46:00;;;;;;;4.63;4.33;;;;;;;1.33;75.79;95567.66;5035927;28;20284;-68
2022/01/29 05:48:27;;;;;;;4.97;4.57;;;;;;;1.31;76.53;95594.34;5035242;28;20327;-69
2022/01/29 05:50:53;;;;;;;4.80;4.30;;;;;;;1.30;76.47;95597.69;5035907;28;20206;-69
2022/01/29 05:53:20;;;;;;;5.60;5.13;;;;;;;1.26;77.12;95595.13;5034802;28;20320;-68
2022/01/29 05:55:47;;;;;;;4.80;4.40;;;;;;;1.34;76.93;95614.44;5035762;28;20674;-68
2022/01/29 05:58:15;;;;;;;6.03;5.60;;;;;;;1.40;77.51;95617.81;5035899;28;20257;-68
2022/01/29 06:00:43;;;;;;;7.80;5.47;;;;;;;1.36;77.08;95621.97;5034986;28;20256;-68
2022/01/29 06:03:10;;;;;;;5.23;4.73;;;;;;;1.36;77.40;95612.78;5035494;28;20652;-68
2022/01/29 06:05:38;;;;;;;6.20;4.97;;;;;;;1.32;78.37;95616.06;5035352;28;20309;-68
2022/01/29 06:08:05;;;;;;;5.13;4.53;;;;;;;1.42;77.48;95626.19;5034873;28;20680;-68
2022/01/29 06:10:33;;;;;;;5.57;5.07;;;;;;;1.43;77.84;95622.88;5034928;28;20324;-68
2022/01/29 06:13:01;;;;;;;5.17;4.40;;;;;;;1.36;77.59;95625.31;5034747;28;20798;-69
2022/01/29 06:15:30;;;;;;;7.03;5.07;;;;;;;1.55;76.87;95630.50;5033058;28;21801;-69
2022/01/29 06:17:57;;;;;;;4.50;4.10;;;;;;;1.54;77.86;95626.31;5032299;28;20199;-69
2022/01/29 06:20:24;;;;;;;5.80;4.17;;;;;;;1.50;76.87;95614.56;5032569;28;20225;-70
2022/01/29 06:22:51;;;;;;;4.97;4.57;;;;;;;1.63;76.06;95628.91;5031619;28;20581;-69
2022/01/29 06:25:18;;;;;;;5.27;4.73;;;;;;;1.52;77.08;95610.41;5033189;28;21010;-69
2022/01/29 06:27:44;;;;;;;6.77;4.83;;;;;;;1.95;75.80;95627.56;5033191;28;20672;-67
2022/01/29 06:30:12;;;;;;;5.03;4.60;;;;;;;2.27;74.33;95635.31;5033502;28;20320;-68
2022/01/29 06:32:40;;;;;;;5.77;5.17;;;;;;;3.05;72.53;95611.50;5031923;28;21352;-69
2022/01/29 06:35:07;;;;;;;5.10;4.60;;;;;;;5.50;64.65;95622.28;5031512;28;20203;-69
2022/01/29 06:37:35;;;;;;;4.15;3.85;;;;;;;7.48;58.58;95619.69;5032710;28;20196;-69
2022/01/29 06:40:01;;;;;;;3.67;3.35;;;;;;;7.85;55.09;95630.19;5032884;28;20222;-67
2022/01/29 06:42:28;;;;;;;4.15;3.70;;;;;;;7.78;55.12;95632.81;5032403;28;20272;-68
2022/01/29 06:44:55;;;;;;;5.15;4.68;;;;;;;9.01;52.46;95630.00;5031686;28;20264;-68
2022/01/29 06:47:22;;;;;;;5.13;4.60;;;;;;;9.54;49.09;95627.28;5032372;28;20717;-68
2022/01/29 06:49:50;;;;;;;4.10;3.80;;;;;;;9.05;50.71;95631.63;5034291;28;20355;-68
2022/01/29 06:52:17;;;;;;;4.22;3.85;;;;;;;8.12;51.39;95628.94;5033184;28;20202;-67
2022/01/29 06:54:43;;;;;;;13.20;7.38;;;;;;;6.77;55.92;95636.50;5033044;28;20862;-67
2022/01/29 06:57:10;;;;;;;7.97;6.07;;;;;;;6.60;58.02;95653.50;5033595;28;20736;-67
2022/01/29 06:59:37;;;;;;;10.27;6.35;;;;;;;7.32;54.68;95646.03;5034513;28;20203;-68
2022/01/29 07:02:04;;;;;;;6.90;5.55;;;;;;;7.40;54.82;95651.84;5033937;28;20196;-68
2022/01/29 07:04:31;;;;;;;8.20;6.00;;;;;;;6.64;55.79;95650.13;5033128;28;20300;-68
2022/01/29 07:06:59;;;;;;;5.07;4.68;;;;;;;5.69;58.95;95654.13;5033540;28;20226;-68
2022/01/29 07:09:26;;;;;;;4.60;4.20;;;;;;;4.91;61.93;95651.91;5034482;28;20272;-70
2022/01/29 07:11:56;;;;;;;4.50;4.07;;;;;;;4.55;63.28;95641.91;5034144;28;20230;-69
2022/01/29 07:14:23;;;;;;;5.40;4.60;;;;;;;4.43;64.11;95652.81;5033157;28;20614;-68
2022/01/29 07:16:50;;;;;;;4.68;4.38;;;;;;;4.35;64.30;95659.53;5033785;28;20748;-69
2022/01/29 07:19:17;;;;;;;6.90;4.70;;;;;;;4.27;65.46;95663.72;5033961;28;20214;-69
2022/01/29 07:21:43;;;;;;;4.63;4.23;;;;;;;4.65;64.06;95654.47;5033909;28;20203;-69
2022/01/29 07:24:12;;;;;;;5.03;4.43;;;;;;;4.37;64.94;95662.88;5032218;28;20787;-69
2022/01/29 07:26:38;;;;;;;5.90;4.87;;;;;;;4.26;65.21;95669.56;5030609;28;20897;-69
2022/01/29 07:29:05;;;;;;;7.53;5.93;;;;;;;5.19;63.38;95667.78;5030822;28;20288;-69
2022/01/29 07:31:32;;;;;;;5.30;4.85;;;;;;;7.64;56.07;95662.53;5031132;28;21103;-69
2022/01/29 07:33:58;;;;;;;8.00;4.97;;;;;;;8.91;52.65;95653.88;5031615;28;20261;-69
2022/01/29 07:36:25;;;;;;;7.55;5.22;;;;;;;8.97;51.25;95663.88;5031256;28;20288;-69
2022/01/29 07:38:52;;;;;;;8.40;5.63;;;;;;;8.68;51.73;95662.69;5030923;28;20258;-68
2022/01/29 07:41:21;;;;;;;5.50;4.57;;;;;;;7.32;54.38;95670.47;5031201;28;20206;-67
2022/01/29 07:43:48;;;;;;;4.93;3.88;;;;;;;6.11;58.35;95684.19;5030901;28;20249;-68
2022/01/29 07:46:15;;;;;;;9.38;5.53;;;;;;;5.05;61.58;95682.94;5031157;28;20211;-69
2022/01/29 07:48:42;;;;;;;5.43;4.82;;;;;;;4.53;63.74;95684.69;5031676;28;20724;-67
2022/01/29 07:51:08;;;;;;;5.38;4.85;;;;;;;4.47;64.56;95681.31;5030900;28;20211;-69
2022/01/29 07:53:35;;;;;;;10.63;6.05;;;;;;;4.07;65.22;95694.72;5031924;28;20311;-67
2022/01/29 07:56:02;;;;;;;5.20;4.73;;;;;;;3.72;67.19;95691.28;5032027;28;20312;-69
2022/01/29 07:58:30;;;;;;;4.97;4.23;;;;;;;3.48;67.86;95696.22;5032653;28;20253;-67
2022/01/29 08:00:57;;;;;;;5.20;4.68;;;;;;;3.56;67.89;95694.59;5033357;28;20223;-68
2022/01/29 08:03:24;;;;;;;4.53;4.20;;;;;;;3.35;68.68;95698.69;5032581;28;21082;-67
2022/01/29 08:05:50;;;;;;;5.33;4.83;;;;;;;3.30;69.52;95707.88;5032600;28;20258;-67
2022/01/29 08:08:17;;;;;;;8.65;6.25;;;;;;;3.26;70.12;95711.22;5033220;28;20289;-68
2022/01/29 08:10:44;;;;;;;130.60;50.13;;;;;;;3.23;70.58;95706.16;5032648;28;20277;-69
2022/01/29 08:13:11;;;;;;;45.78;22.70;;;;;;;3.80;72.74;95704.72;5032681;28;20203;-68
2022/01/29 08:15:39;;;;;;;6.70;6.13;;;;;;;4.34;67.85;95706.50;5032744;28;20331;-68
2022/01/29 08:18:06;;;;;;;5.25;4.85;;;;;;;4.16;67.53;95703.13;5032774;28;20737;-68
2022/01/29 08:20:32;;;;;;;5.10;4.67;;;;;;;3.82;67.74;95710.59;5032692;28;20214;-69
2022/01/29 08:22:59;;;;;;;5.83;5.33;;;;;;;3.81;68.39;95711.44;5032368;28;20249;-68
2022/01/29 08:25:26;;;;;;;19.83;11.27;;;;;;;3.74;69.14;95718.09;5031747;28;20918;-69
2022/01/29 08:27:53;;;;;;;9.67;7.43;;;;;;;3.69;69.13;95722.31;5032736;28;20349;-69
2022/01/29 08:30:19;;;;;;;14.40;8.83;;;;;;;3.72;68.99;95721.44;5029785;28;20241;-69
2022/01/29 08:32:48;;;;;;;9.07;7.18;;;;;;;3.88;68.56;95718.16;5030852;28;20203;-68
2022/01/29 08:35:15;;;;;;;23.43;12.67;;;;;;;4.42;68.44;95711.53;5030517;28;20210;-69
2022/01/29 08:37:42;;;;;;;5.90;5.40;;;;;;;7.19;59.31;95715.25;5030520;28;20591;-68
2022/01/29 08:40:11;;;;;;;6.70;6.03;;;;;;;9.56;51.79;95705.91;5029829;28;20296;-69
2022/01/29 08:42:38;;;;;;;5.70;5.18;;;;;;;11.50;47.79;95698.00;5030450;28;20265;-69
2022/01/29 08:45:08;;;;;;;5.57;5.07;;;;;;;13.41;42.36;95689.63;5029863;28;20203;-69
2022/01/29 08:47:34;;;;;;;5.57;5.10;;;;;;;13.37;41.60;95694.00;5030108;28;20233;-67
2022/01/29 08:50:04;;;;;;;7.03;6.35;;;;;;;13.53;40.35;95686.66;5031316;28;20264;-70
2022/01/29 08:52:31;;;;;;;5.05;4.50;;;;;;;12.20;42.64;95703.69;5030000;28;20203;-68
2022/01/29 08:54:57;;;;;;;6.97;5.22;;;;;;;10.39;46.47;95705.03;5029938;28;20199;-68
2022/01/29 08:57:25;;;;;;;7.15;5.07;;;;;;;9.23;50.17;95716.66;5030615;28;20194;-69
2022/01/29 08:59:52;;;;;;;4.75;4.30;;;;;;;8.25;52.43;95719.91;5031677;28;20207;-69
2022/01/29 09:02:19;;;;;;;5.93;5.43;;;;;;;7.03;55.64;95733.97;5029884;28;20229;-69
2022/01/29 09:04:46;;;;;;;7.00;5.28;;;;;;;6.31;58.16;95731.16;5030430;28;20199;-69
2022/01/29 09:07:14;;;;;;;6.22;5.30;;;;;;;5.67;60.71;95728.97;5030707;28;20202;-68
2022/01/29 09:09:44;;;;;;;5.85;5.35;;;;;;;5.13;62.65;95729.13;5031559;28;20269;-68
2022/01/29 09:12:12;;;;;;;5.95;5.45;;;;;;;4.78;64.51;95731.66;5032235;28;20652;-68
2022/01/29 09:14:39;;;;;;;6.32;5.85;;;;;;;4.77;64.56;95729.97;5030902;28;20257;-66
2022/01/29 09:17:06;;;;;;;6.55;5.93;;;;;;;4.64;64.75;95733.34;5031678;28;20207;-68
2022/01/29 09:19:33;;;;;;;5.65;5.15;;;;;;;4.57;65.35;95739.22;5031129;28;20280;-69
2022/01/29 09:22:01;;;;;;;5.72;5.22;;;;;;;4.56;65.67;95730.00;5031580;28;20264;-68
2022/01/29 09:24:29;;;;;;;5.93;5.33;;;;;;;4.57;65.05;95721.59;5030858;28;20254;-66
2022/01/29 09:26:56;;;;;;;6.90;5.85;;;;;;;4.56;65.98;95719.09;5032026;28;20203;-68
2022/01/29 09:29:23;;;;;;;5.60;5.20;;;;;;;4.50;65.61;95719.06;5031667;28;20628;-68
2022/01/29 09:31:49;;;;;;;7.35;5.30;;;;;;;4.53;66.09;95722.44;5032274;28;20202;-67
2022/01/29 09:34:16;;;;;;;9.68;6.00;;;;;;;4.69;65.39;95719.09;5028726;28;20203;-67
2022/01/29 09:36:43;;;;;;;8.18;6.85;;;;;;;4.66;65.76;95716.56;5029213;28;20199;-68
2022/01/29 09:39:12;;;;;;;5.63;5.18;;;;;;;4.69;64.96;95721.63;5029474;28;20203;-69
2022/01/29 09:41:44;;;;;;;5.57;5.13;;;;;;;4.56;64.67;95719.91;5029630;28;20203;-68
2022/01/29 09:44:10;;;;;;;7.17;5.50;;;;;;;4.53;64.87;95724.94;5029622;28;20198;-68
2022/01/29 09:46:38;;;;;;;4.63;4.22;;;;;;;4.35;64.91;95719.91;5028423;28;20253;-68
2022/01/29 09:49:06;;;;;;;5.55;5.00;;;;;;;4.20;65.09;95729.97;5029931;28;20928;-68
2022/01/29 09:51:33;;;;;;;7.87;6.47;;;;;;;4.17;65.31;95730.81;5029655;28;20243;-69
2022/01/29 09:54:00;;;;;;;5.73;5.33;;;;;;;4.43;65.61;95723.28;5029299;28;20298;-68
2022/01/29 09:56:28;;;;;;;8.37;5.73;;;;;;;5.18;63.88;95720.72;5029467;28;20206;-69
2022/01/29 09:58:57;;;;;;;4.63;4.22;;;;;;;5.67;60.92;95721.41;5029169;28;20345;-69
2022/01/29 10:01:24;;;;;;;4.45;4.15;;;;;;;5.62;60.04;95718.03;5028447;28;20683;-67
2022/01/29 10:04:00;;;;;;;6.82;4.55;;;;;;;5.09;61.07;95703.91;5029103;28;20195;-68
2022/01/29 10:06:27;;;;;;;5.65;5.15;;;;;;;4.87;63.04;95714.88;5030751;28;20207;-67
2022/01/29 10:08:54;;;;;;;4.88;4.47;;;;;;;4.69;62.85;95725.81;5031200;28;20238;-70
2022/01/29 10:11:23;;;;;;;6.32;5.72;;;;;;;4.59;63.36;95719.94;5030656;28;20227;-69
2022/01/29 10:13:50;;;;;;;14.73;9.45;;;;;;;4.34;65.09;95729.13;5030887;28;20289;-68
2022/01/29 10:16:20;;;;;;;10.18;6.22;;;;;;;4.40;65.19;95729.16;5030236;28;20258;-67
2022/01/29 10:18:48;;;;;;;6.50;5.87;;;;;;;4.24;65.45;95729.13;5031109;28;20264;-69
2022/01/29 10:21:17;;;;;;;6.70;5.10;;;;;;;4.22;66.08;95729.09;5031106;28;21383;-67
2022/01/29 10:23:46;;;;;;;8.32;6.38;;;;;;;4.11;66.39;95725.75;5030531;28;20199;-68
2022/01/29 10:26:27;;;;;;;7.38;5.22;;;;;;;4.04;67.34;95721.53;5030250;28;20596;-69
2022/01/29 10:28:55;;;;;;;5.53;5.13;;;;;;;3.90;67.56;95720.69;5035116;28;20233;-69
2022/01/29 10:31:23;;;;;;;7.50;5.95;;;;;;;3.96;68.48;95729.06;5034365;28;20203;-70
2022/01/29 10:33:50;;;;;;;6.70;5.73;;;;;;;3.94;68.15;95713.16;5035340;28;20203;-67
2022/01/29 10:36:18;;;;;;;7.03;6.10;;;;;;;3.98;68.37;95719.00;5034771;28;20959;-69
2022/01/29 10:38:51;;;;;;;6.57;5.97;;;;;;;3.89;68.56;95719.00;5031651;28;20649;-67
2022/01/29 10:41:25;;;;;;;6.47;5.75;;;;;;;3.83;69.31;95722.34;5032717;28;20234;-69
2022/01/29 10:44:02;;;;;;;8.07;6.30;;;;;;;4.04;68.74;95729.94;5031922;28;20293;-68
2022/01/29 10:46:31;;;;;;;7.07;5.70;;;;;;;4.03;68.48;95728.25;5029702;28;20319;-69
2022/01/29 10:49:00;;;;;;;11.87;6.30;;;;;;;3.97;68.91;95723.19;5028619;28;20278;-69
2022/01/29 10:51:27;;;;;;;13.80;7.70;;;;;;;3.91;68.83;95729.91;5031934;28;20210;-68
2022/01/29 10:53:54;;;;;;;8.00;7.23;;;;;;;3.89;68.90;95731.56;5032369;28;20381;-69
2022/01/29 10:56:21;;;;;;;9.67;7.40;;;;;;;3.90;68.79;95739.13;5032255;28;20253;-68
2022/01/29 10:58:50;;;;;;;7.43;6.73;;;;;;;3.67;69.85;95728.16;5031958;28;20807;-67
2022/01/29 11:01:21;;;;;;;8.83;7.67;;;;;;;3.61;69.87;95731.47;5033026;28;20199;-67
2022/01/29 11:03:53;;;;;;;9.00;8.10;;;;;;;3.68;70.33;95739.88;5031851;28;20260;-68
2022/01/29 11:06:28;;;;;;;9.60;7.00;;;;;;;3.89;69.38;95731.56;5031797;28;20686;-69
2022/01/29 11:08:56;;;;;;;7.90;7.10;;;;;;;3.87;69.72;95726.53;5033603;28;20379;-67
2022/01/29 11:11:24;;;;;;;7.78;7.03;;;;;;;3.81;69.14;95723.16;5033886;28;20296;-69
2022/01/29 11:13:52;;;;;;;6.90;6.20;;;;;;;3.77;69.24;95714.75;5033531;28;20253;-68
2022/01/29 11:16:19;;;;;;;9.80;7.87;;;;;;;3.77;69.11;95714.75;5032847;28;20257;-69
2022/01/29 11:18:46;;;;;;;8.67;7.13;;;;;;;3.81;68.98;95713.94;5033762;28;20281;-67
2022/01/29 11:21:14;;;;;;;6.83;6.10;;;;;;;3.72;69.03;95706.34;5033537;28;20218;-69
2022/01/29 11:23:42;;;;;;;6.40;5.80;;;;;;;3.72;69.19;95711.38;5033721;28;20248;-67
2022/01/29 11:26:09;;;;;;;6.57;5.97;;;;;;;3.82;68.28;95715.63;5032992;28;20256;-68
2022/01/29 11:28:36;;;;;;;9.97;6.93;;;;;;;4.03;68.03;95708.13;5033730;28;20729;-68
2022/01/29 11:31:21;;;;;;;6.57;5.83;;;;;;;4.17;67.09;95715.72;5033555;28;20284;-71
2022/01/29 11:34:21;;;;;;;6.93;6.23;;;;;;;4.00;67.69;95713.16;5033649;28;20282;-68
2022/01/29 11:37:08;;;;;;;8.73;6.67;;;;;;;4.02;67.80;95706.44;5030358;28;20235;-70
2022/01/29 11:39:36;;;;;;;8.40;6.87;;;;;;;4.10;67.19;95708.97;5031405;28;20236;-71
2022/01/29 11:42:32;;;;;;;8.77;7.77;;;;;;;4.11;67.01;95703.13;5030794;28;20203;-69
2022/01/29 11:45:38;;;;;;;7.20;6.47;;;;;;;3.92;68.07;95694.72;5031471;28;20662;-68
2022/01/29 11:48:07;;;;;;;7.37;6.63;;;;;;;3.93;67.42;95706.44;5031452;28;20210;-68
2022/01/29 11:50:46;;;;;;;11.27;8.55;;;;;;;4.03;67.92;95713.16;5031371;28;20203;-68
2022/01/29 11:53:16;;;;;;;11.50;8.23;;;;;;;4.01;67.65;95708.97;5030975;28;20207;-68
2022/01/29 11:55:46;;;;;;;10.30;7.00;;;;;;;3.85;66.77;95712.28;5030165;28;20217;-68
2022/01/29 11:58:17;;;;;;;9.53;6.40;;;;;;;3.83;67.35;95704.72;5030367;28;20199;-69